sensor_id;sensor_type;location;lat;lon;timestamp;P1;durP1;ratioP1;P2;durP2;ratioP2
43457;SDS011;29046;54.184;18.680;2023-04-03T00:01:11;7.65;;;1.42;;
43457;SDS011;29046;54.184;18.680;2023-04-03T00:03:39;5.82;;;1.80;;
43457;SDS011;29046;54.184;18.680;2023-04-03T00:06:08;6.03;;;1.48;;
43457;SDS011;29046;54.184;18.680;2023-04-03T00:08:37;4.15;;;1.58;;
43457;SDS011;29046;54.184;18.680;2023-04-03T00:11:05;9.35;;;2.10;;
43457;SDS011;29046;54.184;18.680;2023-04-03T00:13:33;13.63;;;2.08;;
43457;SDS011;29046;54.184;18.680;2023-04-03T00:16:01;6.15;;;1.52;;
43457;SDS011;29046;54.184;18.680;2023-04-03T00:18:30;7.47;;;2.65;;
43457;SDS011;29046;54.184;18.680;2023-04-03T00:20:57;2.50;;;1.20;;
43457;SDS011;29046;54.184;18.680;2023-04-03T00:23:25;3.97;;;1.33;;
43457;SDS011;29046;54.184;18.680;2023-04-03T00:25:52;5.88;;;1.63;;
43457;SDS011;29046;54.184;18.680;2023-04-03T00:28:20;7.47;;;1.65;;
43457;SDS011;29046;54.184;18.680;2023-04-03T00:30:50;4.80;;;1.70;;
43457;SDS011;29046;54.184;18.680;2023-04-03T00:33:18;10.02;;;3.65;;
43457;SDS011;29046;54.184;18.680;2023-04-03T00:35:50;6.85;;;2.08;;
43457;SDS011;29046;54.184;18.680;2023-04-03T00:38:18;2.92;;;0.90;;
43457;SDS011;29046;54.184;18.680;2023-04-03T00:40:47;6.78;;;1.15;;
43457;SDS011;29046;54.184;18.680;2023-04-03T00:45:44;5.25;;;1.48;;
43457;SDS011;29046;54.184;18.680;2023-04-03T00:48:15;9.18;;;1.63;;
43457;SDS011;29046;54.184;18.680;2023-04-03T00:50:43;5.57;;;1.13;;
43457;SDS011;29046;54.184;18.680;2023-04-03T00:53:15;4.72;;;1.25;;
43457;SDS011;29046;54.184;18.680;2023-04-03T00:55:43;0.82;;;0.50;;
43457;SDS011;29046;54.184;18.680;2023-04-03T00:58:11;1.73;;;0.80;;
43457;SDS011;29046;54.184;18.680;2023-04-03T01:00:40;3.55;;;0.90;;
43457;SDS011;29046;54.184;18.680;2023-04-03T01:03:09;6.82;;;1.33;;
43457;SDS011;29046;54.184;18.680;2023-04-03T01:05:36;6.25;;;1.15;;
43457;SDS011;29046;54.184;18.680;2023-04-03T01:08:04;3.63;;;0.60;;
43457;SDS011;29046;54.184;18.680;2023-04-03T01:10:32;2.85;;;0.93;;
43457;SDS011;29046;54.184;18.680;2023-04-03T01:13:00;8.63;;;1.40;;
43457;SDS011;29046;54.184;18.680;2023-04-03T01:15:28;4.18;;;0.70;;
43457;SDS011;29046;54.184;18.680;2023-04-03T01:18:01;2.83;;;0.70;;
43457;SDS011;29046;54.184;18.680;2023-04-03T01:23:02;6.60;;;1.08;;
43457;SDS011;29046;54.184;18.680;2023-04-03T01:25:32;1.23;;;0.50;;
43457;SDS011;29046;54.184;18.680;2023-04-03T01:28:00;3.08;;;0.70;;
43457;SDS011;29046;54.184;18.680;2023-04-03T01:30:31;2.65;;;1.00;;
43457;SDS011;29046;54.184;18.680;2023-04-03T01:32:59;1.98;;;0.80;;
43457;SDS011;29046;54.184;18.680;2023-04-03T01:35:26;5.18;;;0.95;;
43457;SDS011;29046;54.184;18.680;2023-04-03T01:37:54;1.00;;;0.50;;
43457;SDS011;29046;54.184;18.680;2023-04-03T01:40:21;2.28;;;0.88;;
43457;SDS011;29046;54.184;18.680;2023-04-03T01:42:49;1.75;;;0.85;;
43457;SDS011;29046;54.184;18.680;2023-04-03T01:45:16;3.92;;;0.98;;
43457;SDS011;29046;54.184;18.680;2023-04-03T01:47:44;7.10;;;0.70;;
43457;SDS011;29046;54.184;18.680;2023-04-03T01:50:11;0.70;;;0.35;;
43457;SDS011;29046;54.184;18.680;2023-04-03T01:52:39;1.27;;;0.55;;
43457;SDS011;29046;54.184;18.680;2023-04-03T01:55:06;0.65;;;0.50;;
43457;SDS011;29046;54.184;18.680;2023-04-03T01:57:34;1.40;;;0.55;;
43457;SDS011;29046;54.184;18.680;2023-04-03T02:00:02;0.80;;;0.40;;
43457;SDS011;29046;54.184;18.680;2023-04-03T02:02:30;6.07;;;0.82;;
43457;SDS011;29046;54.184;18.680;2023-04-03T02:04:57;0.47;;;0.20;;
43457;SDS011;29046;54.184;18.680;2023-04-03T02:07:25;0.88;;;0.47;;
43457;SDS011;29046;54.184;18.680;2023-04-03T02:09:52;1.70;;;0.60;;
43457;SDS011;29046;54.184;18.680;2023-04-03T02:12:20;3.42;;;1.08;;
43457;SDS011;29046;54.184;18.680;2023-04-03T02:14:47;5.50;;;0.77;;
43457;SDS011;29046;54.184;18.680;2023-04-03T02:17:15;2.45;;;0.98;;
43457;SDS011;29046;54.184;18.680;2023-04-03T02:19:42;3.78;;;1.17;;
43457;SDS011;29046;54.184;18.680;2023-04-03T02:22:10;1.52;;;0.80;;
43457;SDS011;29046;54.184;18.680;2023-04-03T02:24:37;4.28;;;1.42;;
43457;SDS011;29046;54.184;18.680;2023-04-03T02:27:06;5.07;;;1.83;;
43457;SDS011;29046;54.184;18.680;2023-04-03T02:29:34;6.43;;;1.08;;
43457;SDS011;29046;54.184;18.680;2023-04-03T02:32:01;6.30;;;0.98;;
43457;SDS011;29046;54.184;18.680;2023-04-03T02:34:29;4.95;;;1.35;;
43457;SDS011;29046;54.184;18.680;2023-04-03T02:36:57;3.08;;;1.23;;
43457;SDS011;29046;54.184;18.680;2023-04-03T02:39:24;2.28;;;0.65;;
43457;SDS011;29046;54.184;18.680;2023-04-03T02:41:52;4.70;;;1.52;;
43457;SDS011;29046;54.184;18.680;2023-04-03T02:44:20;8.80;;;1.73;;
43457;SDS011;29046;54.184;18.680;2023-04-03T02:46:47;4.20;;;1.17;;
43457;SDS011;29046;54.184;18.680;2023-04-03T02:49:14;4.55;;;1.67;;
43457;SDS011;29046;54.184;18.680;2023-04-03T02:51:42;2.22;;;0.80;;
43457;SDS011;29046;54.184;18.680;2023-04-03T02:54:09;3.28;;;1.17;;
43457;SDS011;29046;54.184;18.680;2023-04-03T02:56:37;11.32;;;1.73;;
43457;SDS011;29046;54.184;18.680;2023-04-03T02:59:04;0.77;;;0.50;;
43457;SDS011;29046;54.184;18.680;2023-04-03T03:01:32;5.40;;;1.00;;
43457;SDS011;29046;54.184;18.680;2023-04-03T03:04:00;3.72;;;0.85;;
43457;SDS011;29046;54.184;18.680;2023-04-03T03:06:27;5.38;;;1.60;;
43457;SDS011;29046;54.184;18.680;2023-04-03T03:08:55;2.13;;;0.90;;
43457;SDS011;29046;54.184;18.680;2023-04-03T03:11:23;2.92;;;0.80;;
43457;SDS011;29046;54.184;18.680;2023-04-03T03:13:50;4.63;;;0.95;;
43457;SDS011;29046;54.184;18.680;2023-04-03T03:16:17;1.30;;;0.90;;
43457;SDS011;29046;54.184;18.680;2023-04-03T03:18:45;3.58;;;0.88;;
43457;SDS011;29046;54.184;18.680;2023-04-03T03:21:13;4.53;;;0.88;;
43457;SDS011;29046;54.184;18.680;2023-04-03T03:23:40;5.50;;;0.68;;
43457;SDS011;29046;54.184;18.680;2023-04-03T03:26:09;4.63;;;0.70;;
43457;SDS011;29046;54.184;18.680;2023-04-03T03:28:37;1.77;;;0.65;;
43457;SDS011;29046;54.184;18.680;2023-04-03T03:31:05;0.73;;;0.45;;
43457;SDS011;29046;54.184;18.680;2023-04-03T03:33:32;1.60;;;0.38;;
43457;SDS011;29046;54.184;18.680;2023-04-03T03:36:00;1.15;;;0.47;;
43457;SDS011;29046;54.184;18.680;2023-04-03T03:38:28;2.35;;;0.28;;
43457;SDS011;29046;54.184;18.680;2023-04-03T03:40:56;2.15;;;0.65;;
43457;SDS011;29046;54.184;18.680;2023-04-03T03:43:23;3.45;;;0.52;;
43457;SDS011;29046;54.184;18.680;2023-04-03T03:45:51;1.00;;;0.43;;
43457;SDS011;29046;54.184;18.680;2023-04-03T03:48:19;1.45;;;0.35;;
43457;SDS011;29046;54.184;18.680;2023-04-03T03:50:48;2.47;;;0.77;;
43457;SDS011;29046;54.184;18.680;2023-04-03T03:53:15;1.60;;;0.60;;
43457;SDS011;29046;54.184;18.680;2023-04-03T03:55:43;2.75;;;0.82;;
43457;SDS011;29046;54.184;18.680;2023-04-03T03:58:11;0.75;;;0.50;;
43457;SDS011;29046;54.184;18.680;2023-04-03T04:00:38;1.08;;;0.32;;
43457;SDS011;29046;54.184;18.680;2023-04-03T04:03:06;1.55;;;0.82;;
43457;SDS011;29046;54.184;18.680;2023-04-03T04:05:34;1.63;;;0.60;;
43457;SDS011;29046;54.184;18.680;2023-04-03T04:08:02;1.60;;;0.82;;
43457;SDS011;29046;54.184;18.680;2023-04-03T04:10:29;1.50;;;0.70;;
43457;SDS011;29046;54.184;18.680;2023-04-03T04:12:57;2.17;;;0.70;;
43457;SDS011;29046;54.184;18.680;2023-04-03T04:15:24;3.67;;;1.38;;
43457;SDS011;29046;54.184;18.680;2023-04-03T04:17:53;3.47;;;0.80;;
43457;SDS011;29046;54.184;18.680;2023-04-03T04:20:21;4.20;;;0.55;;
43457;SDS011;29046;54.184;18.680;2023-04-03T04:22:48;4.22;;;0.60;;
43457;SDS011;29046;54.184;18.680;2023-04-03T04:25:16;2.65;;;1.08;;
43457;SDS011;29046;54.184;18.680;2023-04-03T04:27:43;1.48;;;0.57;;
43457;SDS011;29046;54.184;18.680;2023-04-03T04:30:11;2.80;;;0.52;;
43457;SDS011;29046;54.184;18.680;2023-04-03T04:32:39;0.90;;;0.38;;
43457;SDS011;29046;54.184;18.680;2023-04-03T04:35:07;0.40;;;0.35;;
43457;SDS011;29046;54.184;18.680;2023-04-03T04:37:35;2.17;;;1.05;;
43457;SDS011;29046;54.184;18.680;2023-04-03T04:40:03;3.88;;;0.70;;
43457;SDS011;29046;54.184;18.680;2023-04-03T04:42:30;7.05;;;0.88;;
43457;SDS011;29046;54.184;18.680;2023-04-03T04:44:58;0.50;;;0.50;;
43457;SDS011;29046;54.184;18.680;2023-04-03T04:47:25;2.92;;;0.68;;
43457;SDS011;29046;54.184;18.680;2023-04-03T04:49:55;1.10;;;0.50;;
43457;SDS011;29046;54.184;18.680;2023-04-03T04:52:22;2.25;;;0.68;;
43457;SDS011;29046;54.184;18.680;2023-04-03T04:54:50;2.65;;;1.20;;
43457;SDS011;29046;54.184;18.680;2023-04-03T04:57:17;2.65;;;0.93;;
43457;SDS011;29046;54.184;18.680;2023-04-03T04:59:45;3.03;;;0.70;;
43457;SDS011;29046;54.184;18.680;2023-04-03T05:02:12;1.95;;;0.65;;
43457;SDS011;29046;54.184;18.680;2023-04-03T05:04:40;2.42;;;0.93;;
43457;SDS011;29046;54.184;18.680;2023-04-03T05:07:07;1.95;;;0.80;;
43457;SDS011;29046;54.184;18.680;2023-04-03T05:09:35;0.45;;;0.40;;
43457;SDS011;29046;54.184;18.680;2023-04-03T05:12:02;1.75;;;0.50;;
43457;SDS011;29046;54.184;18.680;2023-04-03T05:14:30;2.78;;;0.65;;
43457;SDS011;29046;54.184;18.680;2023-04-03T05:16:57;1.02;;;0.40;;
43457;SDS011;29046;54.184;18.680;2023-04-03T05:19:25;2.20;;;0.55;;
43457;SDS011;29046;54.184;18.680;2023-04-03T05:21:52;3.10;;;0.95;;
43457;SDS011;29046;54.184;18.680;2023-04-03T05:24:20;5.50;;;0.80;;
43457;SDS011;29046;54.184;18.680;2023-04-03T05:26:47;6.22;;;0.98;;
43457;SDS011;29046;54.184;18.680;2023-04-03T05:29:15;3.05;;;0.70;;
43457;SDS011;29046;54.184;18.680;2023-04-03T05:31:42;2.78;;;0.50;;
43457;SDS011;29046;54.184;18.680;2023-04-03T05:34:10;3.33;;;0.68;;
43457;SDS011;29046;54.184;18.680;2023-04-03T05:36:37;1.88;;;0.70;;
43457;SDS011;29046;54.184;18.680;2023-04-03T05:39:05;1.10;;;0.52;;
43457;SDS011;29046;54.184;18.680;2023-04-03T05:41:32;3.20;;;0.70;;
43457;SDS011;29046;54.184;18.680;2023-04-03T05:44:00;0.52;;;0.40;;
43457;SDS011;29046;54.184;18.680;2023-04-03T05:46:28;4.22;;;0.73;;
43457;SDS011;29046;54.184;18.680;2023-04-03T05:48:56;1.00;;;0.45;;
43457;SDS011;29046;54.184;18.680;2023-04-03T05:51:25;2.63;;;0.90;;
43457;SDS011;29046;54.184;18.680;2023-04-03T05:53:59;3.95;;;0.70;;
43457;SDS011;29046;54.184;18.680;2023-04-03T05:56:28;1.77;;;1.08;;
43457;SDS011;29046;54.184;18.680;2023-04-03T05:58:55;6.15;;;1.10;;
43457;SDS011;29046;54.184;18.680;2023-04-03T06:01:23;1.33;;;0.80;;
43457;SDS011;29046;54.184;18.680;2023-04-03T06:03:50;0.38;;;0.28;;
43457;SDS011;29046;54.184;18.680;2023-04-03T06:06:18;2.17;;;0.93;;
43457;SDS011;29046;54.184;18.680;2023-04-03T06:08:46;3.95;;;0.85;;
43457;SDS011;29046;54.184;18.680;2023-04-03T06:11:13;5.35;;;1.13;;
43457;SDS011;29046;54.184;18.680;2023-04-03T06:13:41;1.50;;;0.68;;
43457;SDS011;29046;54.184;18.680;2023-04-03T06:16:11;1.55;;;0.73;;
43457;SDS011;29046;54.184;18.680;2023-04-03T06:18:41;0.82;;;0.47;;
43457;SDS011;29046;54.184;18.680;2023-04-03T06:21:09;2.60;;;0.57;;
43457;SDS011;29046;54.184;18.680;2023-04-03T06:23:37;1.40;;;0.73;;
43457;SDS011;29046;54.184;18.680;2023-04-03T06:26:04;6.32;;;0.90;;
43457;SDS011;29046;54.184;18.680;2023-04-03T06:28:32;4.40;;;1.05;;
43457;SDS011;29046;54.184;18.680;2023-04-03T06:30:59;2.30;;;1.13;;
43457;SDS011;29046;54.184;18.680;2023-04-03T06:33:27;1.58;;;0.90;;
43457;SDS011;29046;54.184;18.680;2023-04-03T06:35:58;3.20;;;0.77;;
43457;SDS011;29046;54.184;18.680;2023-04-03T06:38:25;2.40;;;0.70;;
43457;SDS011;29046;54.184;18.680;2023-04-03T06:40:53;2.15;;;1.00;;
43457;SDS011;29046;54.184;18.680;2023-04-03T06:43:20;4.00;;;0.88;;
43457;SDS011;29046;54.184;18.680;2023-04-03T06:45:49;4.97;;;0.85;;
43457;SDS011;29046;54.184;18.680;2023-04-03T06:48:17;4.75;;;0.68;;
43457;SDS011;29046;54.184;18.680;2023-04-03T06:50:45;3.38;;;0.80;;
43457;SDS011;29046;54.184;18.680;2023-04-03T06:53:13;3.00;;;1.00;;
43457;SDS011;29046;54.184;18.680;2023-04-03T06:55:41;1.15;;;0.60;;
43457;SDS011;29046;54.184;18.680;2023-04-03T06:58:08;0.90;;;0.55;;
43457;SDS011;29046;54.184;18.680;2023-04-03T07:00:36;4.00;;;0.80;;
43457;SDS011;29046;54.184;18.680;2023-04-03T07:03:04;2.90;;;0.93;;
43457;SDS011;29046;54.184;18.680;2023-04-03T07:05:31;2.05;;;0.75;;
43457;SDS011;29046;54.184;18.680;2023-04-03T07:07:59;1.63;;;0.70;;
43457;SDS011;29046;54.184;18.680;2023-04-03T07:10:27;0.43;;;0.40;;
43457;SDS011;29046;54.184;18.680;2023-04-03T07:12:54;1.92;;;0.60;;
43457;SDS011;29046;54.184;18.680;2023-04-03T07:15:22;5.45;;;1.05;;
43457;SDS011;29046;54.184;18.680;2023-04-03T07:17:49;2.97;;;0.50;;
43457;SDS011;29046;54.184;18.680;2023-04-03T07:20:17;2.58;;;0.80;;
43457;SDS011;29046;54.184;18.680;2023-04-03T07:22:44;5.18;;;0.80;;
43457;SDS011;29046;54.184;18.680;2023-04-03T07:25:11;2.58;;;0.95;;
43457;SDS011;29046;54.184;18.680;2023-04-03T07:27:39;0.82;;;0.45;;
43457;SDS011;29046;54.184;18.680;2023-04-03T07:30:07;3.90;;;0.70;;
43457;SDS011;29046;54.184;18.680;2023-04-03T07:32:35;3.80;;;0.50;;
43457;SDS011;29046;54.184;18.680;2023-04-03T07:35:03;2.72;;;0.80;;
43457;SDS011;29046;54.184;18.680;2023-04-03T07:37:31;3.78;;;0.70;;
43457;SDS011;29046;54.184;18.680;2023-04-03T07:39:58;2.20;;;0.82;;
43457;SDS011;29046;54.184;18.680;2023-04-03T07:42:26;1.88;;;0.55;;
43457;SDS011;29046;54.184;18.680;2023-04-03T07:44:54;11.30;;;0.88;;
43457;SDS011;29046;54.184;18.680;2023-04-03T07:47:22;3.60;;;0.82;;
43457;SDS011;29046;54.184;18.680;2023-04-03T07:49:49;0.88;;;0.50;;
43457;SDS011;29046;54.184;18.680;2023-04-03T07:52:17;3.03;;;0.68;;
43457;SDS011;29046;54.184;18.680;2023-04-03T07:54:44;0.45;;;0.30;;
43457;SDS011;29046;54.184;18.680;2023-04-03T07:57:12;1.75;;;0.75;;
43457;SDS011;29046;54.184;18.680;2023-04-03T07:59:39;3.50;;;0.85;;
43457;SDS011;29046;54.184;18.680;2023-04-03T08:02:09;3.83;;;1.05;;
43457;SDS011;29046;54.184;18.680;2023-04-03T08:04:37;6.10;;;1.05;;
43457;SDS011;29046;54.184;18.680;2023-04-03T08:07:05;3.28;;;0.80;;
43457;SDS011;29046;54.184;18.680;2023-04-03T08:09:32;1.13;;;0.30;;
43457;SDS011;29046;54.184;18.680;2023-04-03T08:12:00;2.03;;;1.13;;
43457;SDS011;29046;54.184;18.680;2023-04-03T08:14:29;2.38;;;1.05;;
43457;SDS011;29046;54.184;18.680;2023-04-03T08:16:57;1.45;;;0.60;;
43457;SDS011;29046;54.184;18.680;2023-04-03T08:19:25;1.23;;;0.68;;
43457;SDS011;29046;54.184;18.680;2023-04-03T08:21:53;0.70;;;0.47;;
43457;SDS011;29046;54.184;18.680;2023-04-03T08:24:21;1.10;;;0.77;;
43457;SDS011;29046;54.184;18.680;2023-04-03T08:26:48;2.92;;;0.90;;
43457;SDS011;29046;54.184;18.680;2023-04-03T08:29:16;1.75;;;0.77;;
43457;SDS011;29046;54.184;18.680;2023-04-03T08:31:44;12.90;;;4.00;;
43457;SDS011;29046;54.184;18.680;2023-04-03T08:34:12;1.45;;;0.55;;
43457;SDS011;29046;54.184;18.680;2023-04-03T08:36:41;0.57;;;0.43;;
43457;SDS011;29046;54.184;18.680;2023-04-03T08:39:09;9.02;;;1.90;;
43457;SDS011;29046;54.184;18.680;2023-04-03T08:41:37;4.13;;;1.02;;
43457;SDS011;29046;54.184;18.680;2023-04-03T08:49:37;4.72;;;0.65;;
43457;SDS011;29046;54.184;18.680;2023-04-03T08:52:09;1.38;;;0.45;;
43457;SDS011;29046;54.184;18.680;2023-04-03T08:54:48;3.88;;;0.77;;
43457;SDS011;29046;54.184;18.680;2023-04-03T08:57:31;2.60;;;0.85;;
43457;SDS011;29046;54.184;18.680;2023-04-03T09:00:00;5.68;;;0.95;;
43457;SDS011;29046;54.184;18.680;2023-04-03T09:02:49;2.55;;;1.70;;
43457;SDS011;29046;54.184;18.680;2023-04-03T09:05:19;3.33;;;1.52;;
43457;SDS011;29046;54.184;18.680;2023-04-03T09:07:52;1.60;;;1.00;;
43457;SDS011;29046;54.184;18.680;2023-04-03T09:10:45;1.48;;;0.60;;
43457;SDS011;29046;54.184;18.680;2023-04-03T09:13:17;1.98;;;0.90;;
43457;SDS011;29046;54.184;18.680;2023-04-03T09:15:47;2.08;;;1.27;;
43457;SDS011;29046;54.184;18.680;2023-04-03T09:18:36;2.47;;;1.33;;
43457;SDS011;29046;54.184;18.680;2023-04-03T09:26:16;6.53;;;1.45;;
43457;SDS011;29046;54.184;18.680;2023-04-03T09:28:45;30.20;;;9.65;;
43457;SDS011;29046;54.184;18.680;2023-04-03T09:31:38;38.70;;;8.93;;
43457;SDS011;29046;54.184;18.680;2023-04-03T09:34:13;19.73;;;4.00;;
43457;SDS011;29046;54.184;18.680;2023-04-03T09:36:46;8.07;;;1.17;;
43457;SDS011;29046;54.184;18.680;2023-04-03T09:39:18;7.93;;;1.90;;
43457;SDS011;29046;54.184;18.680;2023-04-03T09:42:05;13.27;;;2.97;;
43457;SDS011;29046;54.184;18.680;2023-04-03T09:44:40;5.07;;;1.23;;
43457;SDS011;29046;54.184;18.680;2023-04-03T09:50:26;24.50;;;7.07;;
43457;SDS011;29046;54.184;18.680;2023-04-03T09:52:54;32.03;;;7.63;;
43457;SDS011;29046;54.184;18.680;2023-04-03T09:55:23;20.98;;;6.32;;
43457;SDS011;29046;54.184;18.680;2023-04-03T09:57:57;29.83;;;5.38;;
43457;SDS011;29046;54.184;18.680;2023-04-03T10:00:26;17.10;;;3.55;;
43457;SDS011;29046;54.184;18.680;2023-04-03T10:02:54;7.68;;;1.63;;
43457;SDS011;29046;54.184;18.680;2023-04-03T10:05:31;9.70;;;2.35;;
43457;SDS011;29046;54.184;18.680;2023-04-03T10:10:36;3.05;;;1.33;;
43457;SDS011;29046;54.184;18.680;2023-04-03T10:13:10;6.00;;;1.10;;
43457;SDS011;29046;54.184;18.680;2023-04-03T10:18:22;21.45;;;4.30;;
43457;SDS011;29046;54.184;18.680;2023-04-03T10:20:54;6.53;;;1.50;;
43457;SDS011;29046;54.184;18.680;2023-04-03T10:23:26;15.88;;;3.25;;
43457;SDS011;29046;54.184;18.680;2023-04-03T10:31:12;9.70;;;2.60;;
43457;SDS011;29046;54.184;18.680;2023-04-03T10:44:08;2.38;;;0.70;;
43457;SDS011;29046;54.184;18.680;2023-04-03T10:46:49;10.77;;;2.42;;
43457;SDS011;29046;54.184;18.680;2023-04-03T10:51:48;8.98;;;3.03;;
43457;SDS011;29046;54.184;18.680;2023-04-03T10:54:53;2.75;;;0.90;;
43457;SDS011;29046;54.184;18.680;2023-04-03T10:57:23;4.18;;;0.85;;
43457;SDS011;29046;54.184;18.680;2023-04-03T10:59:52;11.15;;;2.78;;
43457;SDS011;29046;54.184;18.680;2023-04-03T11:04:59;1.80;;;0.68;;
43457;SDS011;29046;54.184;18.680;2023-04-03T11:07:30;1.13;;;0.67;;
43457;SDS011;29046;54.184;18.680;2023-04-03T11:10:10;5.78;;;1.50;;
43457;SDS011;29046;54.184;18.680;2023-04-03T11:12:42;4.43;;;1.55;;
43457;SDS011;29046;54.184;18.680;2023-04-03T11:15:16;2.72;;;1.65;;
43457;SDS011;29046;54.184;18.680;2023-04-03T11:18:06;7.22;;;1.20;;
43457;SDS011;29046;54.184;18.680;2023-04-03T11:20:34;14.25;;;4.03;;
43457;SDS011;29046;54.184;18.680;2023-04-03T11:23:17;4.20;;;1.15;;
43457;SDS011;29046;54.184;18.680;2023-04-03T11:25:46;27.58;;;7.28;;
43457;SDS011;29046;54.184;18.680;2023-04-03T11:28:16;18.73;;;4.28;;
43457;SDS011;29046;54.184;18.680;2023-04-03T11:31:01;13.02;;;3.50;;
43457;SDS011;29046;54.184;18.680;2023-04-03T11:36:10;4.38;;;1.20;;
43457;SDS011;29046;54.184;18.680;2023-04-03T11:38:53;16.70;;;4.78;;
43457;SDS011;29046;54.184;18.680;2023-04-03T11:41:24;9.63;;;3.38;;
43457;SDS011;29046;54.184;18.680;2023-04-03T11:48:53;6.15;;;1.88;;
43457;SDS011;29046;54.184;18.680;2023-04-03T12:04:11;1.30;;;0.93;;
43457;SDS011;29046;54.184;18.680;2023-04-03T12:06:42;6.40;;;1.75;;
43457;SDS011;29046;54.184;18.680;2023-04-03T12:09:22;1.17;;;0.60;;
43457;SDS011;29046;54.184;18.680;2023-04-03T12:11:49;3.65;;;0.85;;
43457;SDS011;29046;54.184;18.680;2023-04-03T12:14:17;4.95;;;0.82;;
43457;SDS011;29046;54.184;18.680;2023-04-03T12:16:46;4.70;;;1.00;;
43457;SDS011;29046;54.184;18.680;2023-04-03T12:24:27;5.65;;;1.95;;
43457;SDS011;29046;54.184;18.680;2023-04-03T12:34:38;7.43;;;2.40;;
43457;SDS011;29046;54.184;18.680;2023-04-03T12:37:13;4.75;;;2.00;;
43457;SDS011;29046;54.184;18.680;2023-04-03T12:42:30;4.90;;;1.45;;
43457;SDS011;29046;54.184;18.680;2023-04-03T12:48:02;11.40;;;2.53;;
43457;SDS011;29046;54.184;18.680;2023-04-03T12:50:32;5.07;;;2.13;;
43457;SDS011;29046;54.184;18.680;2023-04-03T12:53:10;6.68;;;1.85;;
43457;SDS011;29046;54.184;18.680;2023-04-03T12:55:39;2.60;;;1.30;;
43457;SDS011;29046;54.184;18.680;2023-04-03T12:58:13;2.22;;;0.98;;
43457;SDS011;29046;54.184;18.680;2023-04-03T13:03:53;3.40;;;1.27;;
43457;SDS011;29046;54.184;18.680;2023-04-03T13:06:32;5.85;;;1.50;;
43457;SDS011;29046;54.184;18.680;2023-04-03T13:09:01;3.63;;;1.77;;
43457;SDS011;29046;54.184;18.680;2023-04-03T13:11:47;3.85;;;0.82;;
43457;SDS011;29046;54.184;18.680;2023-04-03T13:14:23;4.28;;;1.23;;
43457;SDS011;29046;54.184;18.680;2023-04-03T13:16:52;8.57;;;1.48;;
43457;SDS011;29046;54.184;18.680;2023-04-03T13:19:22;5.40;;;2.13;;
43457;SDS011;29046;54.184;18.680;2023-04-03T13:21:50;0.63;;;0.40;;
43457;SDS011;29046;54.184;18.680;2023-04-03T13:24:19;1.80;;;0.63;;
43457;SDS011;29046;54.184;18.680;2023-04-03T13:26:47;7.03;;;1.58;;
43457;SDS011;29046;54.184;18.680;2023-04-03T13:29:25;5.80;;;1.25;;
43457;SDS011;29046;54.184;18.680;2023-04-03T13:31:57;0.75;;;0.60;;
43457;SDS011;29046;54.184;18.680;2023-04-03T13:34:27;5.32;;;2.15;;
43457;SDS011;29046;54.184;18.680;2023-04-03T13:36:57;6.40;;;1.80;;
43457;SDS011;29046;54.184;18.680;2023-04-03T13:39:35;4.05;;;1.30;;
43457;SDS011;29046;54.184;18.680;2023-04-03T13:42:20;6.60;;;2.63;;
43457;SDS011;29046;54.184;18.680;2023-04-03T13:44:49;1.52;;;1.00;;
43457;SDS011;29046;54.184;18.680;2023-04-03T13:50:30;4.10;;;1.73;;
43457;SDS011;29046;54.184;18.680;2023-04-03T13:52:44;2.50;;;0.95;;
43457;SDS011;29046;54.184;18.680;2023-04-03T14:00:19;1.48;;;0.98;;
43457;SDS011;29046;54.184;18.680;2023-04-03T14:03:16;2.33;;;1.30;;
43457;SDS011;29046;54.184;18.680;2023-04-03T14:05:51;4.95;;;2.05;;
43457;SDS011;29046;54.184;18.680;2023-04-03T14:08:19;6.32;;;1.30;;
43457;SDS011;29046;54.184;18.680;2023-04-03T14:11:01;7.68;;;1.85;;
43457;SDS011;29046;54.184;18.680;2023-04-03T14:13:29;4.10;;;1.63;;
43457;SDS011;29046;54.184;18.680;2023-04-03T14:15:57;3.05;;;1.42;;
43457;SDS011;29046;54.184;18.680;2023-04-03T14:18:40;4.88;;;2.00;;
43457;SDS011;29046;54.184;18.680;2023-04-03T14:21:11;3.20;;;0.98;;
43457;SDS011;29046;54.184;18.680;2023-04-03T14:23:39;2.17;;;0.85;;
43457;SDS011;29046;54.184;18.680;2023-04-03T14:26:11;1.77;;;0.93;;
43457;SDS011;29046;54.184;18.680;2023-04-03T14:28:39;3.05;;;1.35;;
43457;SDS011;29046;54.184;18.680;2023-04-03T14:31:11;3.45;;;1.33;;
43457;SDS011;29046;54.184;18.680;2023-04-03T14:33:39;5.90;;;1.05;;
43457;SDS011;29046;54.184;18.680;2023-04-03T14:36:17;4.07;;;1.20;;
43457;SDS011;29046;54.184;18.680;2023-04-03T14:38:45;2.83;;;1.45;;
43457;SDS011;29046;54.184;18.680;2023-04-03T14:41:13;2.55;;;1.23;;
43457;SDS011;29046;54.184;18.680;2023-04-03T14:43:43;4.47;;;0.90;;
43457;SDS011;29046;54.184;18.680;2023-04-03T14:46:16;4.03;;;1.30;;
43457;SDS011;29046;54.184;18.680;2023-04-03T14:48:44;6.40;;;1.83;;
43457;SDS011;29046;54.184;18.680;2023-04-03T14:51:12;7.88;;;2.42;;
43457;SDS011;29046;54.184;18.680;2023-04-03T14:53:41;2.45;;;1.40;;
43457;SDS011;29046;54.184;18.680;2023-04-03T14:56:12;2.67;;;0.90;;
43457;SDS011;29046;54.184;18.680;2023-04-03T14:58:43;1.95;;;0.95;;
43457;SDS011;29046;54.184;18.680;2023-04-03T15:01:16;7.63;;;3.42;;
43457;SDS011;29046;54.184;18.680;2023-04-03T15:03:43;3.25;;;1.30;;
43457;SDS011;29046;54.184;18.680;2023-04-03T15:06:11;7.07;;;1.15;;
43457;SDS011;29046;54.184;18.680;2023-04-03T15:08:40;2.22;;;0.93;;
43457;SDS011;29046;54.184;18.680;2023-04-03T15:11:09;3.05;;;0.85;;
43457;SDS011;29046;54.184;18.680;2023-04-03T15:13:37;2.70;;;1.30;;
43457;SDS011;29046;54.184;18.680;2023-04-03T15:16:06;1.88;;;0.73;;
43457;SDS011;29046;54.184;18.680;2023-04-03T15:21:05;4.40;;;2.20;;
43457;SDS011;29046;54.184;18.680;2023-04-03T15:23:33;2.85;;;1.27;;
43457;SDS011;29046;54.184;18.680;2023-04-03T15:26:00;3.85;;;0.82;;
43457;SDS011;29046;54.184;18.680;2023-04-03T15:28:35;5.82;;;1.75;;
43457;SDS011;29046;54.184;18.680;2023-04-03T15:31:05;2.50;;;0.63;;
43457;SDS011;29046;54.184;18.680;2023-04-03T15:33:33;1.77;;;0.82;;
43457;SDS011;29046;54.184;18.680;2023-04-03T15:36:01;3.13;;;0.80;;
43457;SDS011;29046;54.184;18.680;2023-04-03T15:38:37;3.75;;;1.63;;
43457;SDS011;29046;54.184;18.680;2023-04-03T15:41:05;1.77;;;0.93;;
43457;SDS011;29046;54.184;18.680;2023-04-03T15:43:33;2.47;;;1.25;;
43457;SDS011;29046;54.184;18.680;2023-04-03T15:46:01;3.97;;;1.10;;
43457;SDS011;29046;54.184;18.680;2023-04-03T15:48:29;4.82;;;1.15;;
43457;SDS011;29046;54.184;18.680;2023-04-03T15:50:56;2.60;;;0.93;;
43457;SDS011;29046;54.184;18.680;2023-04-03T15:53:25;5.65;;;1.77;;
43457;SDS011;29046;54.184;18.680;2023-04-03T15:55:52;6.63;;;2.03;;
43457;SDS011;29046;54.184;18.680;2023-04-03T15:58:20;3.90;;;1.70;;
43457;SDS011;29046;54.184;18.680;2023-04-03T16:00:47;5.53;;;2.17;;
43457;SDS011;29046;54.184;18.680;2023-04-03T16:03:16;6.80;;;2.00;;
43457;SDS011;29046;54.184;18.680;2023-04-03T16:05:44;7.15;;;3.80;;
43457;SDS011;29046;54.184;18.680;2023-04-03T16:08:12;10.07;;;3.78;;
43457;SDS011;29046;54.184;18.680;2023-04-03T16:10:39;15.80;;;3.58;;
43457;SDS011;29046;54.184;18.680;2023-04-03T16:13:07;11.30;;;3.22;;
43457;SDS011;29046;54.184;18.680;2023-04-03T16:15:35;12.05;;;3.72;;
43457;SDS011;29046;54.184;18.680;2023-04-03T16:18:04;7.18;;;2.65;;
43457;SDS011;29046;54.184;18.680;2023-04-03T16:20:32;6.90;;;2.17;;
43457;SDS011;29046;54.184;18.680;2023-04-03T16:22:59;11.00;;;2.55;;
43457;SDS011;29046;54.184;18.680;2023-04-03T16:25:27;8.27;;;3.35;;